Atwood, Wisconsin
Current Conditions -  °F | °C
As of 10:35 AM on Saturday 25 Oct 2014 (Local Time) from KMDZ Reporting Station
Clear Clear  
Wind Chill: 52°   Ceiling: Unl
Heat Index: 52°   Visibility: 10mi
Dew Point: 35°   Wind: 15mph
Humidity: 51%   Direction: 310°NW
Pressure: 29.91"   Gusts: 22mph
Location:  44.9782°N, 90.5368°W
Report Text: KMDZ 251535Z AUTO 31013G19KT 10SM CLR 11/01 A2991 RMK AO2 T01110014
Loading
Personal Weather Stations






























Interactive Weather Map
Tropical Storm Tracking
New forecast layout! Learn more

10-Day Weather Forecast

Advertisements
Track Severe Weather on mobile